Time;durP1;ratioP1;P1;durP2;ratioP2;P2;SDS_P1;SDS_P2;PMS_P1;PMS_P2;Temp;Humidity;BMP_temperature;BMP_pressure;BME280_temperature;BME280_humidity;BME280_pressure;Samples;Min_cycle;Max_cycle;Signal;HPM_P1;HPM_P2
2022/05/06 00:01:46;;;;;;;28.55;14.32;;;8.40;99.90;;;;;;4979408;28;20046;-74
2022/05/06 00:04:14;;;;;;;24.30;12.90;;;8.40;99.90;;;;;;4970965;28;20449;-71
2022/05/06 00:06:40;;;;;;;30.38;15.70;;;8.40;99.90;;;;;;4975515;28;20048;-71
2022/05/06 00:09:06;;;;;;;27.80;14.63;;;8.30;99.90;;;;;;4984815;28;20081;-72
2022/05/06 00:11:32;;;;;;;25.27;12.68;;;8.40;99.90;;;;;;4978322;28;20046;-71
2022/05/06 00:13:58;;;;;;;25.20;12.35;;;8.40;99.90;;;;;;4955295;28;20095;-70
2022/05/06 00:16:26;;;;;;;23.65;12.27;;;8.40;99.90;;;;;;4987639;28;20050;-71
2022/05/06 00:18:53;;;;;;;25.77;13.77;;;8.30;99.90;;;;;;5002976;28;20418;-71
2022/05/06 00:21:19;;;;;;;23.67;11.90;;;8.20;99.90;;;;;;4988801;28;20060;-72
2022/05/06 00:23:46;;;;;;;22.45;12.10;;;8.20;99.90;;;;;;4975151;28;20046;-72
2022/05/06 00:26:12;;;;;;;26.30;13.63;;;8.20;99.90;;;;;;4990962;28;20413;-74
2022/05/06 00:28:39;;;;;;;31.38;14.70;;;8.20;99.90;;;;;;4986303;28;20042;-74
2022/05/06 00:31:09;;;;;;;26.08;14.32;;;8.20;99.90;;;;;;5008327;28;20042;-71
2022/05/06 00:33:35;;;;;;;22.88;11.85;;;8.20;99.90;;;;;;4989013;28;20510;-73
2022/05/06 00:36:03;;;;;;;24.52;11.68;;;8.20;99.90;;;;;;5007560;28;20076;-71
2022/05/06 00:38:30;;;;;;;21.00;11.23;;;8.10;99.90;;;;;;4990931;28;20042;-71
2022/05/06 00:40:56;;;;;;;19.45;9.30;;;8.00;99.90;;;;;;4974756;28;20514;-71
2022/05/06 00:43:26;;;;;;;15.52;8.50;;;8.00;99.90;;;;;;4995387;28;20112;-71
2022/05/06 00:45:54;;;;;;;18.23;10.05;;;8.00;99.90;;;;;;4972153;28;20052;-74
2022/05/06 00:48:23;;;;;;;15.57;7.97;;;8.00;99.90;;;;;;5006345;28;20038;-71
2022/05/06 00:50:50;;;;;;;20.92;9.93;;;7.90;99.90;;;;;;4990928;28;20103;-71
2022/05/06 00:53:17;;;;;;;34.70;17.02;;;7.90;99.90;;;;;;4989134;28;20061;-71
2022/05/06 00:55:43;;;;;;;34.72;15.98;;;7.90;99.90;;;;;;4994403;28;20085;-72
2022/05/06 00:58:09;;;;;;;27.48;14.30;;;7.90;99.90;;;;;;4995989;28;20054;-71
2022/05/06 01:00:36;;;;;;;29.30;14.45;;;7.90;99.90;;;;;;4996738;28;20046;-71
2022/05/06 01:03:02;;;;;;;26.88;13.18;;;7.90;99.90;;;;;;4996231;28;20493;-72
2022/05/06 01:05:29;;;;;;;28.60;14.13;;;7.90;99.90;;;;;;4985646;28;20065;-71
2022/05/06 01:07:56;;;;;;;22.23;12.32;;;7.90;99.90;;;;;;4979297;28;20121;-71
2022/05/06 01:10:22;;;;;;;28.65;15.23;;;7.80;99.90;;;;;;4960843;28;20046;-71
2022/05/06 01:12:48;;;;;;;26.63;13.30;;;7.70;99.90;;;;;;4977897;28;20097;-71
2022/05/06 01:15:22;;;;;;;27.88;13.88;;;7.70;99.90;;;;;;4985680;28;20050;-71
2022/05/06 01:17:50;;;;;;;36.28;17.73;;;7.60;99.90;;;;;;4976478;28;20081;-71
2022/05/06 01:20:17;;;;;;;34.88;16.95;;;7.60;99.90;;;;;;4988312;28;20487;-71
2022/05/06 01:22:54;;;;;;;31.00;15.25;;;7.60;99.90;;;;;;4975959;28;20078;-72
2022/05/06 01:25:20;;;;;;;30.30;15.82;;;7.60;99.90;;;;;;4956716;28;20087;-71
2022/05/06 01:28:02;;;;;;;29.63;15.30;;;7.60;99.90;;;;;;4975814;28;20465;-70
2022/05/06 01:30:42;;;;;;;20.42;11.80;;;7.60;99.90;;;;;;4960108;28;20054;-71
2022/05/06 01:33:12;;;;;;;27.63;14.20;;;7.60;99.90;;;;;;4939294;28;20398;-71
2022/05/06 01:35:42;;;;;;;29.00;13.90;;;7.50;99.90;;;;;;4955307;28;20058;-70
2022/05/06 01:38:10;;;;;;;23.25;12.05;;;7.50;99.90;;;;;;4977552;28;20054;-70
2022/05/06 01:40:43;;;;;;;16.75;9.48;;;7.50;99.90;;;;;;4963389;28;20395;-71
2022/05/06 01:43:13;;;;;;;15.85;9.13;;;7.50;99.90;;;;;;4986752;28;20046;-71
2022/05/06 01:45:40;;;;;;;18.02;10.65;;;7.40;99.90;;;;;;4971569;28;20046;-71
2022/05/06 01:48:08;;;;;;;24.50;12.77;;;7.40;99.90;;;;;;4969649;28;20054;-72
2022/05/06 01:50:39;;;;;;;24.35;13.23;;;7.40;99.90;;;;;;4966130;28;20049;-70
2022/05/06 01:53:07;;;;;;;13.57;8.63;;;7.40;99.90;;;;;;4968418;28;20057;-75
2022/05/06 01:55:33;;;;;;;25.92;14.20;;;7.40;99.90;;;;;;4953783;28;20066;-71
2022/05/06 01:57:59;;;;;;;29.58;15.10;;;7.30;99.90;;;;;;4992389;28;20047;-70
2022/05/06 02:00:26;;;;;;;32.15;15.80;;;7.30;99.90;;;;;;4973881;28;20050;-70
2022/05/06 02:02:52;;;;;;;31.38;15.48;;;7.40;99.90;;;;;;4975481;28;20053;-70
2022/05/06 02:05:19;;;;;;;28.30;14.40;;;7.40;99.90;;;;;;4941899;28;20038;-72
2022/05/06 02:07:48;;;;;;;34.42;16.75;;;7.40;99.90;;;;;;4974439;28;20506;-71
2022/05/06 02:10:15;;;;;;;34.70;16.33;;;7.30;99.90;;;;;;4954541;28;20426;-70
2022/05/06 02:12:42;;;;;;;28.35;14.05;;;7.30;99.90;;;;;;4969934;28;20104;-71
2022/05/06 02:15:11;;;;;;;29.60;16.02;;;7.40;99.90;;;;;;4950706;28;20050;-72
2022/05/06 02:17:39;;;;;;;34.05;17.20;;;7.40;99.90;;;;;;4970069;28;20125;-71
2022/05/06 02:20:07;;;;;;;34.75;15.68;;;7.40;99.90;;;;;;4984942;28;20085;-71
2022/05/06 02:22:34;;;;;;;28.52;13.65;;;7.30;99.90;;;;;;4987954;28;20057;-71
2022/05/06 02:25:00;;;;;;;11.43;6.32;;;7.30;99.90;;;;;;4973331;28;20041;-72
2022/05/06 02:27:26;;;;;;;18.65;10.07;;;7.20;99.90;;;;;;4987760;28;20518;-71
2022/05/06 02:35:21;;;;;;;31.50;16.38;;;7.10;99.90;;;;;;4983928;28;20046;-72
2022/05/06 02:37:47;;;;;;;30.50;15.18;;;7.10;99.90;;;;;;4975395;28;20088;-71
2022/05/06 02:40:13;;;;;;;30.65;15.65;;;7.00;99.90;;;;;;4986309;28;20038;-71
2022/05/06 02:42:40;;;;;;;37.55;17.55;;;7.00;99.90;;;;;;4991840;28;20046;-73
2022/05/06 02:45:07;;;;;;;31.42;16.08;;;7.00;99.90;;;;;;5005206;28;20394;-73
2022/05/06 02:47:35;;;;;;;29.10;14.65;;;7.00;99.90;;;;;;4986879;28;20088;-72
2022/05/06 02:50:01;;;;;;;32.05;16.33;;;7.00;99.90;;;;;;4993922;28;20053;-72
2022/05/06 02:52:28;;;;;;;36.85;17.52;;;7.00;99.90;;;;;;4954271;28;20165;-73
2022/05/06 02:54:54;;;;;;;38.03;18.25;;;7.00;99.90;;;;;;4971780;28;20080;-71
2022/05/06 02:57:20;;;;;;;38.42;19.15;;;7.00;99.90;;;;;;4991298;28;20077;-71
2022/05/06 02:59:46;;;;;;;39.75;19.60;;;7.00;99.90;;;;;;4991751;28;20061;-71
2022/05/06 03:02:12;;;;;;;36.42;17.05;;;7.00;99.90;;;;;;4991405;28;20560;-74
2022/05/06 03:04:39;;;;;;;35.15;17.00;;;6.90;99.90;;;;;;4974991;28;20085;-72
2022/05/06 03:07:07;;;;;;;31.20;15.45;;;6.90;99.90;;;;;;4974699;28;20054;-72
2022/05/06 03:09:34;;;;;;;26.08;13.32;;;6.90;99.90;;;;;;4982015;28;20069;-71
2022/05/06 03:12:00;;;;;;;36.92;17.20;;;6.90;99.90;;;;;;4987874;28;20438;-71
2022/05/06 03:14:27;;;;;;;41.83;20.20;;;6.80;99.90;;;;;;4994079;28;20050;-71
2022/05/06 03:16:53;;;;;;;40.67;19.83;;;6.90;99.90;;;;;;4976144;28;20145;-71
2022/05/06 03:19:19;;;;;;;33.10;16.52;;;6.90;99.90;;;;;;4980852;28;20053;-71
2022/05/06 03:21:50;;;;;;;33.08;16.17;;;6.80;99.90;;;;;;4984290;28;20066;-71
2022/05/06 03:24:17;;;;;;;24.85;13.50;;;6.80;99.90;;;;;;4988282;28;20108;-71
2022/05/06 03:26:43;;;;;;;22.65;13.30;;;6.80;99.90;;;;;;4974452;28;20058;-73
2022/05/06 03:29:09;;;;;;;33.40;17.08;;;6.70;99.90;;;;;;4972453;28;20111;-71
2022/05/06 03:31:36;;;;;;;47.90;17.98;;;6.80;99.90;;;;;;4987977;28;20057;-71
2022/05/06 03:34:03;;;;;;;45.28;19.38;;;6.70;99.90;;;;;;4988080;28;20046;-75
2022/05/06 03:36:29;;;;;;;41.95;16.90;;;6.80;99.90;;;;;;4987481;28;20046;-71
2022/05/06 03:38:55;;;;;;;33.40;17.30;;;6.70;99.90;;;;;;4984167;28;20050;-71
2022/05/06 03:41:21;;;;;;;36.45;18.90;;;6.70;99.90;;;;;;4987103;28;20054;-71
2022/05/06 03:43:47;;;;;;;38.72;18.67;;;6.70;99.90;;;;;;4970587;28;20100;-71
2022/05/06 03:46:13;;;;;;;32.50;17.20;;;6.70;99.90;;;;;;4972325;28;20053;-72
2022/05/06 03:48:39;;;;;;;38.35;13.13;;;6.80;99.90;;;;;;4988843;28;20042;-71
2022/05/06 03:51:21;;;;;;;41.78;15.68;;;6.70;99.90;;;;;;4972752;28;20108;-71
2022/05/06 03:53:50;;;;;;;;;;;6.80;99.90;;;;;;5001244;28;20049;-73
2022/05/06 03:56:16;;;;;;;39.78;17.52;;;6.70;99.90;;;;;;4989065;28;19929;-72
2022/05/06 03:58:42;;;;;;;30.42;15.82;;;6.70;99.90;;;;;;4959387;28;20088;-71
2022/05/06 04:01:08;;;;;;;32.35;16.17;;;6.70;99.90;;;;;;4996067;28;20077;-71
2022/05/06 04:03:34;;;;;;;36.42;17.77;;;6.70;99.90;;;;;;4965999;28;20535;-71
2022/05/06 04:06:00;;;;;;;42.78;19.65;;;6.70;99.90;;;;;;4983231;28;20089;-71
2022/05/06 04:08:26;;;;;;;52.25;22.67;;;6.70;99.90;;;;;;4977565;28;20406;-72
2022/05/06 04:10:52;;;;;;;50.70;22.30;;;6.80;99.90;;;;;;4986581;28;20052;-72
2022/05/06 04:13:18;;;;;;;54.28;23.45;;;6.80;99.90;;;;;;4996757;28;20054;-72
2022/05/06 04:15:46;;;;;;;40.75;20.52;;;6.90;99.90;;;;;;4983271;28;20056;-72
2022/05/06 04:18:13;;;;;;;31.20;17.63;;;7.00;99.90;;;;;;4977278;28;20081;-71
2022/05/06 04:23:29;;;;;;;43.65;21.35;;;7.10;99.90;;;;;;4973487;28;20509;-71
2022/05/06 04:25:55;;;;;;;32.75;17.00;;;7.20;99.90;;;;;;4976214;28;20061;-71
2022/05/06 04:28:23;;;;;;;30.40;15.90;;;7.30;99.90;;;;;;4990169;28;20143;-71
2022/05/06 04:30:50;;;;;;;40.72;19.05;;;7.30;99.90;;;;;;4971420;28;20053;-71
2022/05/06 04:33:17;;;;;;;38.85;19.95;;;7.40;99.90;;;;;;4991307;28;20718;-72
2022/05/06 04:35:43;;;;;;;44.13;21.60;;;7.50;99.90;;;;;;5005400;28;20052;-73
2022/05/06 04:38:09;;;;;;;48.05;23.27;;;7.50;99.90;;;;;;5008255;28;20046;-71
2022/05/06 04:40:36;;;;;;;41.97;21.15;;;7.70;99.90;;;;;;4959082;28;20046;-72
2022/05/06 04:43:03;;;;;;;44.13;21.42;;;7.90;99.90;;;;;;4996558;28;20127;-71
2022/05/06 04:45:29;;;;;;;42.80;21.42;;;7.90;99.90;;;;;;5006641;28;20120;-73
2022/05/06 04:47:56;;;;;;;43.40;20.98;;;8.10;99.90;;;;;;4987802;28;20076;-72
2022/05/06 04:50:22;;;;;;;43.00;20.23;;;8.10;99.90;;;;;;4988025;28;20125;-71
2022/05/06 04:52:49;;;;;;;44.33;21.42;;;8.20;99.90;;;;;;4979123;28;20042;-75
2022/05/06 04:55:15;;;;;;;38.65;20.65;;;8.30;99.90;;;;;;4994034;28;20053;-70
2022/05/06 04:57:42;;;;;;;38.13;20.08;;;8.40;99.90;;;;;;4990672;28;20037;-75
2022/05/06 05:00:09;;;;;;;41.47;19.77;;;8.50;99.90;;;;;;4990587;28;20109;-71
2022/05/06 05:02:35;;;;;;;41.08;20.42;;;8.50;99.90;;;;;;5007259;28;20410;-72
2022/05/06 05:05:03;;;;;;;39.72;20.50;;;8.60;99.90;;;;;;4972671;28;20045;-74
2022/05/06 05:07:29;;;;;;;40.60;21.30;;;8.70;99.90;;;;;;4990445;28;20188;-72
2022/05/06 05:09:55;;;;;;;46.50;22.77;;;8.70;99.90;;;;;;4989691;28;20128;-71
2022/05/06 05:12:24;;;;;;;52.80;24.58;;;8.80;99.90;;;;;;4997599;28;20061;-71
2022/05/06 05:14:50;;;;;;;48.70;24.42;;;8.90;99.90;;;;;;4989924;28;20046;-72
2022/05/06 05:17:16;;;;;;;47.45;24.55;;;9.00;99.90;;;;;;4987202;28;20372;-75
2022/05/06 05:19:43;;;;;;;46.10;24.38;;;9.00;99.90;;;;;;4988809;28;20425;-74
2022/05/06 05:22:09;;;;;;;43.60;22.25;;;9.10;99.90;;;;;;5005748;28;20487;-73
2022/05/06 05:24:35;;;;;;;45.00;23.23;;;9.10;99.90;;;;;;4989582;28;20045;-72
2022/05/06 05:27:01;;;;;;;53.90;26.30;;;9.30;99.90;;;;;;4989145;28;20050;-74
2022/05/06 05:29:28;;;;;;;54.92;25.67;;;9.40;99.90;;;;;;4973600;28;20050;-71
2022/05/06 05:31:54;;;;;;;50.03;25.20;;;9.50;99.90;;;;;;4990597;28;20060;-72
2022/05/06 05:34:20;;;;;;;48.88;24.45;;;9.50;99.90;;;;;;4960708;28;20380;-72
2022/05/06 05:36:46;;;;;;;52.35;24.85;;;9.70;99.90;;;;;;4975898;28;20092;-72
2022/05/06 05:39:12;;;;;;;48.50;23.80;;;9.80;99.90;;;;;;4989510;28;20104;-71
2022/05/06 05:41:38;;;;;;;46.30;23.75;;;9.90;99.90;;;;;;4994256;28;20050;-71
2022/05/06 05:49:34;;;;;;;56.38;26.98;;;10.30;99.90;;;;;;4987385;28;20153;-72
2022/05/06 05:52:00;;;;;;;58.25;26.35;;;10.30;99.90;;;;;;4990004;28;20042;-72
2022/05/06 05:54:26;;;;;;;57.35;27.70;;;10.30;99.90;;;;;;4971771;28;20517;-72
2022/05/06 05:56:54;;;;;;;54.33;26.23;;;10.30;99.90;;;;;;4982754;28;20070;-72
2022/05/06 05:59:20;;;;;;;55.45;26.77;;;10.30;99.90;;;;;;4990678;28;20054;-72
2022/05/06 06:01:46;;;;;;;54.35;26.52;;;10.20;99.90;;;;;;4993646;28;20053;-71
2022/05/06 06:04:12;;;;;;;52.83;27.35;;;10.30;99.90;;;;;;5008639;28;20129;-73
2022/05/06 06:06:38;;;;;;;54.22;28.83;;;10.30;99.90;;;;;;4953375;28;20084;-72
2022/05/06 06:09:04;;;;;;;51.38;27.75;;;10.40;99.90;;;;;;4985259;28;20047;-72
2022/05/06 06:11:30;;;;;;;57.25;28.10;;;10.40;99.90;;;;;;4994555;28;20100;-72
2022/05/06 06:13:56;;;;;;;57.88;28.52;;;10.60;99.90;;;;;;5011593;28;20089;-71
2022/05/06 06:16:22;;;;;;;61.65;30.08;;;10.80;99.90;;;;;;4995001;28;20046;-71
2022/05/06 06:18:48;;;;;;;56.90;29.15;;;10.90;99.90;;;;;;4993006;28;20149;-72
2022/05/06 06:21:15;;;;;;;56.05;28.38;;;11.10;99.90;;;;;;4993397;28;20062;-71
2022/05/06 06:23:41;;;;;;;66.15;30.52;;;11.10;99.90;;;;;;4970334;28;20100;-72
2022/05/06 06:26:07;;;;;;;58.35;28.38;;;11.30;99.90;;;;;;4995009;28;20062;-72
2022/05/06 06:28:33;;;;;;;58.88;29.00;;;11.40;99.90;;;;;;4991337;28;20060;-71
2022/05/06 06:30:59;;;;;;;61.67;29.30;;;11.50;99.90;;;;;;4976113;28;20057;-72
2022/05/06 06:33:25;;;;;;;60.42;30.00;;;11.60;99.90;;;;;;5007494;28;20053;-72
2022/05/06 06:35:51;;;;;;;61.80;29.58;;;11.70;99.90;;;;;;4957897;28;20052;-72
2022/05/06 06:38:17;;;;;;;61.78;30.48;;;11.70;99.90;;;;;;4971413;28;20058;-71
2022/05/06 06:40:43;;;;;;;63.78;29.30;;;12.00;99.90;;;;;;4985040;28;20046;-73
2022/05/06 06:43:10;;;;;;;59.83;29.13;;;12.30;99.90;;;;;;4988606;28;20184;-72
2022/05/06 06:45:37;;;;;;;64.75;31.30;;;12.50;99.90;;;;;;4987542;28;20049;-71
2022/05/06 06:48:04;;;;;;;57.63;28.88;;;12.80;99.90;;;;;;4972019;28;20131;-72
2022/05/06 07:36:23;;;;;;;44.10;23.75;;;13.70;99.90;;;;;;5005962;28;20052;-72
2022/05/06 07:38:59;;;;;;;44.55;22.80;;;14.10;99.90;;;;;;4996527;28;20054;-72
2022/05/06 07:41:25;;;;;;;42.30;21.88;;;14.40;99.90;;;;;;4989841;28;20130;-73
2022/05/06 07:43:51;;;;;;;41.60;22.60;;;14.70;99.90;;;;;;4990368;28;20046;-74
2022/05/06 07:46:18;;;;;;;36.90;21.30;;;14.70;99.90;;;;;;4978915;28;20136;-72
2022/05/06 07:48:44;;;;;;;40.85;22.30;;;14.90;99.90;;;;;;4976690;28;20052;-74
2022/05/06 07:51:10;;;;;;;39.85;21.45;;;15.00;99.90;;;;;;5011808;28;20038;-72
2022/05/06 07:53:36;;;;;;;41.47;21.27;;;15.10;99.90;;;;;;4997668;28;20042;-72
2022/05/06 07:56:03;;;;;;;38.10;21.67;;;15.30;99.90;;;;;;4964243;28;20111;-72
2022/05/06 07:58:30;;;;;;;40.95;21.10;;;15.20;99.90;;;;;;4992406;28;20502;-74
2022/05/06 08:00:56;;;;;;;40.78;22.77;;;15.40;99.90;;;;;;5010538;28;20060;-72
2022/05/06 08:06:07;;;;;;;44.72;23.10;;;15.60;99.90;;;;;;4995891;28;20049;-72
2022/05/06 08:08:33;;;;;;;40.38;22.42;;;15.80;99.90;;;;;;4976292;28;20056;-72
2022/05/06 08:10:59;;;;;;;42.30;23.25;;;16.00;99.90;;;;;;4994353;28;20135;-71
2022/05/06 08:13:26;;;;;;;36.85;21.27;;;15.90;99.90;;;;;;4994725;28;20050;-72
2022/05/06 08:15:55;;;;;;;35.28;20.33;;;16.00;99.90;;;;;;4982143;28;20049;-73
2022/05/06 08:18:22;;;;;;;37.72;21.63;;;16.00;99.90;;;;;;4996587;28;20506;-72
2022/05/06 08:20:48;;;;;;;36.63;21.20;;;16.00;99.90;;;;;;4992750;28;20080;-91
2022/05/06 08:23:14;;;;;;;33.25;19.60;;;15.90;99.90;;;;;;4964430;28;20421;-73
2022/05/06 08:25:41;;;;;;;37.60;21.48;;;15.90;99.90;;;;;;5011762;28;20428;-70
2022/05/06 08:28:07;;;;;;;36.60;21.60;;;15.90;99.90;;;;;;4991324;28;20054;-70
2022/05/06 08:30:33;;;;;;;33.97;20.23;;;16.00;99.90;;;;;;4977437;28;20045;-75
2022/05/06 08:32:59;;;;;;;35.25;21.40;;;15.90;99.90;;;;;;4975807;28;20142;-70
2022/05/06 08:35:25;;;;;;;34.78;20.88;;;15.80;99.90;;;;;;4993977;28;20157;-69
2022/05/06 08:37:51;;;;;;;34.00;20.13;;;15.80;99.90;;;;;;4993216;28;20390;-69
2022/05/06 08:40:18;;;;;;;31.42;18.77;;;16.20;99.90;;;;;;4994698;28;20061;-70
2022/05/06 08:42:44;;;;;;;32.63;19.52;;;16.20;99.90;;;;;;4992054;28;20042;-70
2022/05/06 08:50:53;;;;;;;31.33;18.23;;;17.00;99.90;;;;;;4992455;28;20719;-76
2022/05/06 08:53:27;;;;;;;29.17;18.25;;;17.50;99.90;;;;;;4992337;28;20168;-70
2022/05/06 08:55:55;;;;;;;24.05;15.35;;;17.50;99.90;;;;;;4991134;28;20045;-69
2022/05/06 08:58:23;;;;;;;26.40;17.27;;;17.70;99.90;;;;;;4994057;28;20037;-70
2022/05/06 09:00:49;;;;;;;23.98;15.48;;;17.80;99.90;;;;;;4976717;28;20482;-69
2022/05/06 09:03:17;;;;;;;24.30;14.65;;;17.80;99.90;;;;;;4975232;28;20038;-70
2022/05/06 09:05:53;;;;;;;21.13;14.73;;;18.10;99.90;;;;;;4994351;28;20040;-78
2022/05/06 09:08:22;;;;;;;24.33;14.50;;;18.20;99.90;;;;;;4992368;28;20048;-70
2022/05/06 09:11:07;;;;;;;23.63;15.00;;;18.10;99.90;;;;;;4991938;28;20143;-70
2022/05/06 09:13:38;;;;;;;24.48;14.18;;;17.90;99.90;;;;;;4992454;28;20050;-69
2022/05/06 09:16:46;;;;;;;25.02;15.82;;;17.60;99.90;;;;;;4992000;28;20049;-69
2022/05/06 09:19:19;;;;;;;22.70;13.85;;;17.30;99.90;;;;;;5001695;28;20030;-70
2022/05/06 09:22:17;;;;;;;21.65;14.77;;;17.50;99.90;;;;;;4994745;28;20052;-69
2022/05/06 09:24:47;;;;;;;22.23;14.23;;;17.30;99.90;;;;;;5004017;28;20390;-71
2022/05/06 09:27:15;;;;;;;21.17;14.10;;;17.70;99.90;;;;;;4989918;28;20397;-69
2022/05/06 09:29:43;;;;;;;20.48;13.20;;;17.70;99.90;;;;;;4992144;28;20116;-69
2022/05/06 09:32:29;;;;;;;19.23;12.48;;;17.30;99.90;;;;;;4972950;28;20558;-71
2022/05/06 09:34:59;;;;;;;19.90;12.63;;;17.20;99.90;;;;;;4993473;28;20108;-69
2022/05/06 09:37:38;;;;;;;21.30;12.93;;;16.80;99.90;;;;;;4977778;28;20041;-70
2022/05/06 09:40:12;;;;;;;19.77;12.60;;;16.60;99.90;;;;;;4982210;28;20061;-71
2022/05/06 09:42:39;;;;;;;19.55;13.48;;;16.50;99.90;;;;;;4974411;28;20041;-68
2022/05/06 09:45:07;;;;;;;19.33;12.18;;;16.60;99.90;;;;;;4991220;28;20389;-70
2022/05/06 09:47:33;;;;;;;19.95;13.10;;;17.00;99.90;;;;;;4974472;28;20464;-71
2022/05/06 09:50:00;;;;;;;16.83;9.70;;;17.50;99.90;;;;;;4993069;28;20058;-70
2022/05/06 09:52:26;;;;;;;17.50;11.23;;;17.80;99.90;;;;;;4971098;28;20054;-68
2022/05/06 09:54:53;;;;;;;18.38;11.93;;;17.90;99.90;;;;;;4976754;28;20061;-69
2022/05/06 09:57:19;;;;;;;15.38;9.77;;;17.90;99.90;;;;;;4992343;28;20466;-69
2022/05/06 09:59:46;;;;;;;15.15;10.13;;;18.10;99.90;;;;;;5010943;28;20040;-69
2022/05/06 10:02:13;;;;;;;16.63;10.70;;;18.30;99.90;;;;;;4992103;28;20366;-73
2022/05/06 10:04:40;;;;;;;14.80;9.95;;;18.30;99.90;;;;;;4992067;28;20069;-70
2022/05/06 10:07:14;;;;;;;15.80;10.30;;;18.40;99.90;;;;;;4989549;28;20046;-69
2022/05/06 10:10:20;;;;;;;14.23;9.38;;;18.50;99.90;;;;;;4990305;28;20064;-68
2022/05/06 10:12:53;;;;;;;13.32;8.93;;;18.80;99.90;;;;;;4910854;29;20036;-70
2022/05/06 10:15:22;;;;;;;11.50;8.20;;;18.90;99.90;;;;;;4908835;29;20063;-71
2022/05/06 10:17:59;;;;;;;11.35;7.70;;;19.00;99.90;;;;;;4934921;28;20050;-68
2022/05/06 10:20:35;;;;;;;11.35;8.27;;;19.00;99.90;;;;;;4976775;28;20046;-69
2022/05/06 10:23:04;;;;;;;11.70;7.35;;;19.30;99.90;;;;;;4974483;28;20077;-70
2022/05/06 10:25:42;;;;;;;9.65;7.38;;;19.50;99.90;;;;;;4992057;28;20038;-71
2022/05/06 10:34:08;;;;;;;7.07;5.30;;;19.50;99.90;;;;;;4988910;28;20050;-69
2022/05/06 10:36:56;;;;;;;9.13;6.78;;;19.80;99.90;;;;;;4976138;28;20490;-70
2022/05/06 10:39:36;;;;;;;8.93;6.70;;;19.70;99.90;;;;;;4989982;28;20050;-69
2022/05/06 10:42:07;;;;;;;9.93;6.78;;;19.70;99.90;;;;;;5007728;28;20077;-69
2022/05/06 10:44:36;;;;;;;8.10;6.07;;;19.80;99.90;;;;;;4966099;28;20046;-69
2022/05/06 10:47:11;;;;;;;7.90;5.78;;;19.50;99.90;;;;;;4978247;28;20064;-69
2022/05/06 10:49:42;;;;;;;8.95;5.35;;;19.60;99.90;;;;;;4989578;28;20053;-69
2022/05/06 10:52:18;;;;;;;11.10;5.50;;;19.80;99.90;;;;;;4990168;28;20046;-73
2022/05/06 10:54:48;;;;;;;7.43;4.95;;;19.80;99.90;;;;;;4992101;28;20061;-72
2022/05/06 10:57:16;;;;;;;6.55;5.35;;;20.20;99.90;;;;;;4961048;28;20414;-70
2022/05/06 10:59:51;;;;;;;6.85;5.30;;;20.40;99.90;;;;;;5009617;28;20046;-69
2022/05/06 11:02:21;;;;;;;5.40;4.32;;;20.70;99.90;;;;;;5006924;28;20046;-69
2022/05/06 11:04:55;;;;;;;5.57;4.43;;;20.90;88.40;;;;;;4990552;28;20046;-70
2022/05/06 11:07:22;;;;;;;6.88;4.72;;;20.90;99.90;;;;;;5007949;28;20041;-69
2022/05/06 11:09:48;;;;;;;7.25;5.32;;;21.10;94.80;;;;;;4971188;28;20150;-69
2022/05/06 11:12:38;;;;;;;6.22;4.30;;;21.10;95.20;;;;;;4987404;28;20049;-70
2022/05/06 11:15:06;;;;;;;5.63;3.70;;;20.90;90.40;;;;;;4973252;28;20477;-71
2022/05/06 11:17:33;;;;;;;5.22;4.10;;;21.00;97.10;;;;;;5004464;28;20046;-69
2022/05/06 11:20:23;;;;;;;5.60;4.03;;;20.70;96.90;;;;;;4975129;28;20034;-70
2022/05/06 11:23:00;;;;;;;4.97;3.70;;;21.00;74.10;;;;;;4985728;28;20053;-70
2022/05/06 11:25:47;;;;;;;4.20;3.63;;;20.70;90.80;;;;;;4991408;28;20121;-69
2022/05/06 11:28:14;;;;;;;5.25;3.40;;;20.70;87.50;;;;;;4993124;28;20052;-70
2022/05/06 11:30:45;;;;;;;3.42;3.13;;;21.00;80.40;;;;;;4974925;28;20041;-69
2022/05/06 11:33:29;;;;;;;5.22;3.10;;;21.30;72.70;;;;;;4990952;28;20068;-71
2022/05/06 11:36:08;;;;;;;3.88;3.30;;;21.50;70.00;;;;;;4986784;28;20049;-69
2022/05/06 11:38:39;;;;;;;4.28;3.22;;;21.70;75.30;;;;;;4977403;28;20042;-71
2022/05/06 11:41:10;;;;;;;4.10;3.70;;;21.30;72.60;;;;;;5008010;28;20049;-69
2022/05/06 11:43:37;;;;;;;4.57;3.70;;;21.50;71.00;;;;;;4955580;28;20537;-69
2022/05/06 11:48:48;;;;;;;4.20;3.80;;;21.40;71.50;;;;;;4990941;28;20557;-69
2022/05/06 11:51:27;;;;;;;4.82;3.53;;;21.20;73.10;;;;;;4989142;28;20034;-70
2022/05/06 11:53:54;;;;;;;5.18;4.55;;;21.50;68.20;;;;;;4987205;28;20495;-70
2022/05/06 11:56:22;;;;;;;6.20;4.13;;;21.60;70.60;;;;;;4961814;28;20382;-70
2022/05/06 11:58:49;;;;;;;3.45;3.15;;;21.70;68.30;;;;;;4988882;28;20100;-70
2022/05/06 12:01:44;;;;;;;8.27;3.22;;;22.10;65.20;;;;;;4990446;28;20123;-70
2022/05/06 12:04:11;;;;;;;3.10;2.58;;;21.90;63.10;;;;;;4963447;28;20381;-70
2022/05/06 12:06:41;;;;;;;4.45;2.92;;;22.10;64.00;;;;;;4974988;28;20049;-69
2022/05/06 12:09:21;;;;;;;3.30;3.00;;;22.30;62.40;;;;;;4988361;28;20395;-70
2022/05/06 12:12:06;;;;;;;3.88;2.55;;;22.20;61.00;;;;;;4993099;28;20038;-71
2022/05/06 12:14:32;;;;;;;3.10;2.40;;;22.50;59.40;;;;;;4980503;28;20042;-70
2022/05/06 12:17:03;;;;;;;5.13;2.45;;;22.20;62.20;;;;;;4990001;28;20048;-71
2022/05/06 12:19:33;;;;;;;3.15;2.58;;;22.90;60.80;;;;;;4977597;28;20042;-70
2022/05/06 12:22:04;;;;;;;5.38;2.65;;;23.00;58.90;;;;;;4977080;28;20378;-70
2022/05/06 12:24:52;;;;;;;4.55;2.95;;;22.90;59.90;;;;;;4995264;28;20096;-69
2022/05/06 12:27:30;;;;;;;7.00;3.20;;;23.30;57.80;;;;;;4994288;28;20069;-70
2022/05/06 12:30:00;;;;;;;3.25;2.90;;;23.40;57.00;;;;;;4994582;28;20041;-70
2022/05/06 12:32:30;;;;;;;8.43;3.00;;;23.60;59.30;;;;;;4994091;28;20517;-69
2022/05/06 12:35:10;;;;;;;4.40;2.70;;;23.70;58.60;;;;;;4993008;28;20410;-70
2022/05/06 12:37:52;;;;;;;3.42;3.10;;;23.70;57.90;;;;;;4992160;28;20080;-70
2022/05/06 12:40:18;;;;;;;4.75;2.50;;;23.50;60.30;;;;;;4993428;28;20065;-70
2022/05/06 12:42:44;;;;;;;3.78;2.50;;;24.10;60.30;;;;;;4977748;28;20050;-72
2022/05/06 12:45:12;;;;;;;5.18;2.30;;;24.70;59.80;;;;;;4994908;28;20099;-69
2022/05/06 12:50:22;;;;;;;2.83;2.13;;;25.00;55.40;;;;;;4993956;28;20129;-70
2022/05/06 12:52:48;;;;;;;4.32;2.55;;;24.70;56.10;;;;;;4994494;28;20054;-71
2022/05/06 12:55:14;;;;;;;4.80;2.35;;;24.30;53.70;;;;;;4993002;28;20033;-71
2022/05/06 12:57:40;;;;;;;2.95;2.25;;;24.00;57.10;;;;;;4993050;28;20037;-70
2022/05/06 13:00:07;;;;;;;2.58;2.38;;;24.20;57.00;;;;;;4958741;28;20045;-70
2022/05/06 13:02:33;;;;;;;3.75;2.10;;;24.30;56.10;;;;;;4974463;28;20050;-71
2022/05/06 13:04:59;;;;;;;3.55;2.60;;;24.30;56.60;;;;;;4992132;28;20070;-70
2022/05/06 13:07:25;;;;;;;2.40;2.08;;;24.70;56.30;;;;;;4993600;28;20073;-71
2022/05/06 13:09:51;;;;;;;2.65;2.30;;;25.20;55.40;;;;;;4977900;28;20111;-70
2022/05/06 13:12:18;;;;;;;2.38;2.00;;;25.60;54.80;;;;;;4994261;28;20100;-69
2022/05/06 13:14:44;;;;;;;3.95;2.20;;;26.10;55.20;;;;;;4987952;28;20073;-70
2022/05/06 13:17:10;;;;;;;2.80;2.25;;;25.60;53.90;;;;;;4978900;28;20374;-70
2022/05/06 13:19:35;;;;;;;2.30;2.10;;;26.00;53.30;;;;;;4964972;28;20046;-70
2022/05/06 13:22:02;;;;;;;4.43;2.22;;;26.20;53.40;;;;;;4986268;28;20117;-70
2022/05/06 13:24:28;;;;;;;3.30;1.80;;;26.80;52.50;;;;;;5013532;28;20429;-70
2022/05/06 13:26:54;;;;;;;2.65;1.98;;;26.50;53.10;;;;;;4976995;28;20127;-72
2022/05/06 13:29:20;;;;;;;3.45;1.85;;;26.20;52.60;;;;;;5005012;28;20092;-70
2022/05/06 13:31:45;;;;;;;5.88;2.20;;;25.90;51.00;;;;;;4991564;28;20041;-71
2022/05/06 13:34:11;;;;;;;2.22;1.52;;;25.90;51.30;;;;;;4990624;28;20054;-76
2022/05/06 13:36:38;;;;;;;2.67;1.80;;;26.30;52.00;;;;;;4975395;28;20046;-70
2022/05/06 13:39:04;;;;;;;2.03;1.40;;;27.10;51.90;;;;;;4989265;28;20056;-71
2022/05/06 13:41:30;;;;;;;3.15;1.40;;;28.30;51.90;;;;;;4982982;28;20453;-69
2022/05/06 13:43:55;;;;;;;4.53;1.60;;;28.40;50.10;;;;;;4986595;28;20077;-70
2022/05/06 13:46:21;;;;;;;2.30;2.10;;;28.10;49.80;;;;;;4983905;28;20050;-70
2022/05/06 13:48:48;;;;;;;2.97;2.47;;;28.40;49.50;;;;;;4957342;28;20042;-71
2022/05/06 13:51:14;;;;;;;3.85;2.35;;;28.60;48.60;;;;;;4992029;28;20390;-71
2022/05/06 13:53:40;;;;;;;2.80;2.42;;;28.40;47.90;;;;;;4975583;28;20053;-69
2022/05/06 13:59:05;;;;;;;2.25;2.03;;;27.00;48.40;;;;;;4981373;28;20041;-69
2022/05/06 14:01:35;;;;;;;2.03;1.55;;;27.00;49.70;;;;;;4976931;28;20051;-69
2022/05/06 14:04:02;;;;;;;2.20;1.95;;;26.80;49.60;;;;;;4987179;28;20532;-71
2022/05/06 14:06:29;;;;;;;3.50;1.90;;;26.30;49.50;;;;;;4989961;28;20050;-71
2022/05/06 14:08:56;;;;;;;2.58;2.13;;;25.80;50.50;;;;;;4995613;28;20125;-73